TimeCDT,TemperatureF,Dew PointF,Humidity,Sea Level PressureIn,VisibilityMPH,Wind Direction,Wind SpeedMPH,Gust SpeedMPH,PrecipitationIn,Events,Conditions,WindDirDegrees,DateUTC
12:54 AM,41.0,37.9,89,30.19,10.0,North,12.7,-,N/A,,Overcast,360,2013-05-05 05:54:00
1:54 AM,42.1,37.9,85,30.18,10.0,North,11.5,-,N/A,,Overcast,350,2013-05-05 06:54:00
2:44 AM,42.8,37.4,81,30.15,10.0,NNW,13.8,-,N/A,,Overcast,340,2013-05-05 07:44:00
2:54 AM,42.1,37.9,85,30.17,10.0,North,13.8,-,N/A,,Overcast,350,2013-05-05 07:54:00
3:54 AM,42.1,37.9,85,30.17,10.0,North,12.7,-,N/A,,Overcast,350,2013-05-05 08:54:00
4:54 AM,42.1,37.9,85,30.17,10.0,North,9.2,-,N/A,,Overcast,350,2013-05-05 09:54:00
5:54 AM,42.1,37.9,85,30.17,10.0,North,11.5,-,N/A,,Overcast,350,2013-05-05 10:54:00
6:54 AM,42.1,37.9,85,30.18,10.0,NNW,11.5,-,0.00,Rain,Light Rain,340,2013-05-05 11:54:00
7:54 AM,43.0,37.9,82,30.20,10.0,North,13.8,-,N/A,,Overcast,350,2013-05-05 12:54:00
8:46 AM,44.6,37.4,76,30.18,10.0,NNW,13.8,-,N/A,,Overcast,340,2013-05-05 13:46:00
8:54 AM,44.1,37.9,79,30.20,10.0,NNW,13.8,-,N/A,,Overcast,340,2013-05-05 13:54:00
9:54 AM,45.0,37.9,76,30.20,10.0,NNW,13.8,-,N/A,,Overcast,340,2013-05-05 14:54:00
10:54 AM,46.0,39.0,76,30.22,10.0,NNW,12.7,-,N/A,,Overcast,340,2013-05-05 15:54:00
11:54 AM,48.0,41.0,77,30.21,10.0,North,10.4,-,N/A,,Overcast,360,2013-05-05 16:54:00
12:54 PM,50.0,42.8,76,30.19,10.0,NNW,11.5,-,N/A,,Overcast,340,2013-05-05 17:54:00
1:11 PM,51.8,42.8,71,30.18,10.0,NNW,10.4,-,N/A,,Overcast,340,2013-05-05 18:11:00
1:54 PM,53.1,43.0,69,30.18,10.0,North,13.8,-,N/A,,Overcast,360,2013-05-05 18:54:00
2:54 PM,51.1,44.1,77,30.18,10.0,NNW,11.5,-,0.00,,Overcast,340,2013-05-05 19:54:00
3:54 PM,52.0,44.1,74,30.16,10.0,North,9.2,-,N/A,,Overcast,360,2013-05-05 20:54:00
4:20 PM,53.6,44.6,72,30.14,10.0,North,11.5,-,N/A,,Overcast,360,2013-05-05 21:20:00
4:54 PM,55.0,46.0,72,30.14,10.0,North,11.5,-,N/A,,Overcast,360,2013-05-05 21:54:00
5:05 PM,53.6,44.6,72,30.13,10.0,North,9.2,-,N/A,,Overcast,350,2013-05-05 22:05:00
5:54 PM,54.0,46.0,75,30.14,10.0,North,9.2,-,N/A,,Overcast,10,2013-05-05 22:54:00
6:54 PM,55.4,46.4,72,30.12,10.0,NNE,10.4,-,N/A,,Mostly Cloudy,20,2013-05-05 23:54:00
7:54 PM,51.1,46.0,83,30.14,10.0,North,9.2,-,N/A,,Scattered Clouds,360,2013-05-06 00:54:00
8:12 PM,51.8,44.6,76,30.13,10.0,North,9.2,-,N/A,,Mostly Cloudy,360,2013-05-06 01:12:00
8:35 PM,48.2,44.6,87,30.13,10.0,North,6.9,-,N/A,,Overcast,10,2013-05-06 01:35:00
8:54 PM,50.0,45.0,83,30.15,10.0,NNE,5.8,-,N/A,,Overcast,20,2013-05-06 01:54:00
9:36 PM,51.8,46.4,82,30.14,10.0,NNE,5.8,-,N/A,,Overcast,30,2013-05-06 02:36:00
9:54 PM,51.1,46.0,83,30.16,10.0,NNE,6.9,-,N/A,,Overcast,20,2013-05-06 02:54:00
10:11 PM,51.8,46.4,82,30.15,10.0,NNE,6.9,-,N/A,,Overcast,20,2013-05-06 03:11:00
10:54 PM,51.1,46.0,83,30.17,10.0,NNE,4.6,-,N/A,,Overcast,20,2013-05-06 03:54:00
11:54 PM,50.0,46.0,86,30.17,10.0,North,4.6,-,N/A,,Overcast,350,2013-05-06 04:54:00